54°F Temp
52°F Dewpoint
94% Humidity
Temperature
23 MPH
37 KM/H
20 KTS
20°
North North
East

Wind Speed
Misty
Conditions
Pressure 1021.72 (hPa) - 30.17 (in)
Visibility 5.0 (mi) - 8.0 (km)

Current Conditions
KCBK
Location 5(mi)
Metar :KCBK 171435Z AUTO 02020G25KT 5SM BR OVC006 12/11 A3017 RMK AO2 T01250112
Fri 17th September 08:35 am

Airport
  Metar Aviation API Data Provided by https://www.checkwx.com/ PHP scripts by weather34.com ©2021